createdAt,value
2019-02-23T00:01:31.622Z,-0.16
2019-02-23T00:03:57.405Z,-0.13
2019-02-23T00:06:29.694Z,-0.12
2019-02-23T00:08:50.847Z,-0.09
2019-02-23T00:11:16.603Z,-0.16
2019-02-23T00:13:42.378Z,-0.18
2019-02-23T00:16:08.151Z,-0.20
2019-02-23T00:18:34.005Z,-0.20
2019-02-23T00:20:59.892Z,-0.20
2019-02-23T00:23:25.638Z,-0.19
2019-02-23T00:25:51.423Z,-0.14
2019-02-23T00:28:17.170Z,-0.14
2019-02-23T00:30:43.100Z,-0.18
2019-02-23T00:33:08.860Z,-0.16
2019-02-23T00:35:34.750Z,-0.14
2019-02-23T00:38:00.511Z,-0.20
2019-02-23T00:40:26.289Z,-0.19
2019-02-23T00:42:52.038Z,-0.13
2019-02-23T00:45:17.809Z,-0.14
2019-02-23T00:47:43.712Z,-0.13
2019-02-23T00:50:09.477Z,-0.12
2019-02-23T00:52:35.597Z,-0.20
2019-02-23T00:55:01.834Z,-0.17
2019-02-23T00:57:27.608Z,-0.14
2019-02-23T00:59:53.378Z,-0.18
2019-02-23T01:02:19.223Z,-0.18
2019-02-23T01:04:45.005Z,-0.18
2019-02-23T01:07:10.943Z,-0.19
2019-02-23T01:09:36.703Z,-0.23
2019-02-23T01:12:02.564Z,-0.23
2019-02-23T01:14:28.902Z,-0.20
2019-02-23T01:16:54.666Z,-0.19
2019-02-23T01:19:20.418Z,-0.19
2019-02-23T01:21:46.187Z,-0.22
2019-02-23T01:24:11.943Z,-0.25
2019-02-23T01:26:38.171Z,-0.23
2019-02-23T01:29:03.915Z,-0.35
2019-02-23T01:31:29.690Z,-0.41
2019-02-23T01:33:55.596Z,-0.46
2019-02-23T01:36:21.359Z,-0.49
2019-02-23T01:38:47.124Z,-0.53
2019-02-23T01:41:15.118Z,-0.63
2019-02-23T01:43:40.989Z,-0.72
2019-02-23T01:46:06.766Z,-0.67
2019-02-23T01:48:32.524Z,-0.70
2019-02-23T01:50:58.283Z,-0.74
2019-02-23T01:53:24.045Z,-0.78
2019-02-23T01:55:49.830Z,-0.85
2019-02-23T01:58:15.607Z,-0.81
2019-02-23T02:00:41.434Z,-0.73
2019-02-23T02:03:07.318Z,-0.70
2019-02-23T02:05:33.078Z,-0.73
2019-02-23T02:07:59.017Z,-0.72
2019-02-23T02:10:24.970Z,-0.70
2019-02-23T02:12:50.748Z,-0.75
2019-02-23T02:15:16.520Z,-0.79
2019-02-23T02:17:42.282Z,-0.80
2019-02-23T02:20:11.440Z,-0.82
2019-02-23T02:22:35.906Z,-0.80
2019-02-23T02:25:01.748Z,-0.84
2019-02-23T02:27:27.522Z,-0.86
2019-02-23T02:29:53.278Z,-0.92
2019-02-23T02:32:19.063Z,-1.02
2019-02-23T02:34:44.809Z,-0.98
2019-02-23T02:37:10.664Z,-0.98
2019-02-23T02:39:36.434Z,-1.03
2019-02-23T02:42:02.192Z,-1.02
2019-02-23T02:44:27.955Z,-0.99
2019-02-23T02:46:53.715Z,-0.99
2019-02-23T02:49:19.481Z,-0.97
2019-02-23T02:51:45.228Z,-0.95
2019-02-23T02:54:10.997Z,-0.98
2019-02-23T02:56:36.750Z,-0.94
2019-02-23T02:59:02.534Z,-0.92
2019-02-23T03:01:28.298Z,-0.89
2019-02-23T03:03:54.067Z,-0.89
2019-02-23T03:06:19.816Z,-0.95
2019-02-23T03:08:45.583Z,-0.96
2019-02-23T03:11:11.334Z,-0.97
2019-02-23T03:13:37.107Z,-0.99
2019-02-23T03:16:02.853Z,-0.98
2019-02-23T03:18:28.642Z,-1.01
2019-02-23T03:20:54.386Z,-1.04
2019-02-23T03:23:20.141Z,-1.09
2019-02-23T03:25:45.908Z,-1.07
2019-02-23T03:28:11.673Z,-1.10
2019-02-23T03:30:37.439Z,-1.13
2019-02-23T03:33:03.195Z,-1.12
2019-02-23T03:35:29.056Z,-1.14
2019-02-23T03:37:54.814Z,-1.17
2019-02-23T03:40:20.575Z,-1.19
2019-02-23T03:42:46.339Z,-1.19
2019-02-23T03:45:12.112Z,-1.24
2019-02-23T03:47:37.862Z,-1.31
2019-02-23T03:50:05.426Z,-1.27
2019-02-23T03:52:31.179Z,-1.30
2019-02-23T03:54:56.986Z,-1.29
2019-02-23T03:57:22.726Z,-1.26
2019-02-23T03:59:48.486Z,-1.34
2019-02-23T04:02:14.253Z,-1.40
2019-02-23T04:04:40.064Z,-1.42
2019-02-23T04:07:05.777Z,-1.44
2019-02-23T04:09:31.542Z,-1.40
2019-02-23T04:11:57.311Z,-1.40
2019-02-23T04:14:23.043Z,-1.42
2019-02-23T04:16:48.814Z,-1.42
2019-02-23T04:19:14.559Z,-1.42
2019-02-23T04:21:40.324Z,-1.47
2019-02-23T04:24:06.073Z,-1.46
2019-02-23T04:26:31.843Z,-1.41
2019-02-23T04:28:57.585Z,-1.47
2019-02-23T04:31:23.352Z,-1.53
2019-02-23T04:33:49.096Z,-1.56
2019-02-23T04:36:14.873Z,-1.49
2019-02-23T04:38:40.616Z,-1.54
2019-02-23T04:41:06.390Z,-1.59
2019-02-23T04:43:32.141Z,-1.58
2019-02-23T04:45:57.907Z,-1.58
2019-02-23T04:48:23.653Z,-1.57
2019-02-23T04:50:49.421Z,-1.51
2019-02-23T04:53:15.173Z,-1.57
2019-02-23T04:55:40.948Z,-1.60
2019-02-23T04:58:06.714Z,-1.62
2019-02-23T05:00:32.613Z,-1.63
2019-02-23T05:02:58.366Z,-1.62
2019-02-23T05:05:24.107Z,-1.61
2019-02-23T05:07:49.885Z,-1.60
2019-02-23T05:10:15.631Z,-1.60
2019-02-23T05:12:41.396Z,-1.61
2019-02-23T05:15:08.845Z,-1.59
2019-02-23T05:17:34.614Z,-1.58
2019-02-23T05:20:00.400Z,-1.61
2019-02-23T05:22:26.240Z,-1.59
2019-02-23T05:24:53.491Z,-1.55
2019-02-23T05:27:19.251Z,-1.55
2019-02-23T05:29:45.001Z,-1.58
2019-02-23T05:32:10.765Z,-1.59
2019-02-23T05:34:36.513Z,-1.56
2019-02-23T05:37:02.278Z,-1.58
2019-02-23T05:39:28.040Z,-1.60
2019-02-23T05:41:53.798Z,-1.60
2019-02-23T05:44:19.550Z,-1.59
2019-02-23T05:46:45.314Z,-1.56
2019-02-23T05:49:11.062Z,-1.57
2019-02-23T05:51:38.952Z,-1.63
2019-02-23T05:54:04.481Z,-1.56
2019-02-23T05:56:30.252Z,-1.52
2019-02-23T05:58:56.012Z,-1.56
2019-02-23T06:01:21.772Z,-1.54
2019-02-23T06:03:47.541Z,-1.52
2019-02-23T06:06:13.280Z,-1.47
2019-02-23T06:08:39.164Z,-1.50
2019-02-23T06:11:04.905Z,-1.50
2019-02-23T06:13:30.876Z,-1.48
2019-02-23T06:15:56.639Z,-1.51
2019-02-23T06:18:22.404Z,-1.48
2019-02-23T06:20:48.154Z,-1.49
2019-02-23T06:23:14.021Z,-1.47
2019-02-23T06:25:39.773Z,-1.88
2019-02-23T06:28:05.536Z,-1.55
2019-02-23T06:30:31.286Z,-1.54
2019-02-23T06:32:57.045Z,-1.56
2019-02-23T06:35:22.803Z,-1.54
2019-02-23T06:37:48.583Z,-1.58
2019-02-23T06:40:14.328Z,-1.53
2019-02-23T06:42:40.087Z,-1.52
2019-02-23T06:45:08.744Z,-1.53
2019-02-23T06:47:34.515Z,-1.55
2019-02-23T06:50:00.319Z,-1.50
2019-02-23T06:52:26.019Z,-1.51
2019-02-23T06:54:51.783Z,-1.50
2019-02-23T06:57:17.540Z,-1.49
2019-02-23T06:59:43.315Z,-1.44
2019-02-23T07:02:09.060Z,-1.46
2019-02-23T07:04:34.828Z,-1.42
2019-02-23T07:07:00.601Z,-1.37
2019-02-23T07:09:26.346Z,-1.31
2019-02-23T07:11:52.094Z,-1.25
2019-02-23T07:14:17.863Z,-1.20
2019-02-23T07:16:43.605Z,-1.16
2019-02-23T07:19:09.375Z,-1.15
2019-02-23T07:21:35.122Z,-1.03
2019-02-23T07:24:00.890Z,-1.00
2019-02-23T07:26:26.643Z,-0.88
2019-02-23T07:28:52.407Z,-0.87
2019-02-23T07:31:18.168Z,-0.79
2019-02-23T07:33:43.943Z,-0.77
2019-02-23T07:36:09.690Z,-0.74
2019-02-23T07:38:35.647Z,-0.65
2019-02-23T07:41:01.417Z,-0.60
2019-02-23T07:43:27.172Z,-0.61
2019-02-23T07:45:52.921Z,-0.49
2019-02-23T07:48:18.680Z,-0.43
2019-02-23T07:50:44.441Z,-0.37
2019-02-23T07:53:10.199Z,-0.34
2019-02-23T07:55:35.959Z,-0.38
2019-02-23T07:58:01.723Z,-0.32
2019-02-23T08:00:27.494Z,-0.31
2019-02-23T08:02:53.248Z,-0.20
2019-02-23T08:05:19.058Z,-0.14
2019-02-23T08:07:44.811Z,-0.03
2019-02-23T08:10:11.284Z,0.03
2019-02-23T08:12:37.036Z,0.15
2019-02-23T08:15:05.508Z,0.16
2019-02-23T08:17:31.257Z,0.27
2019-02-23T08:19:57.031Z,0.39
2019-02-23T08:22:22.780Z,0.45
2019-02-23T08:24:48.553Z,0.52
2019-02-23T08:27:14.305Z,0.67
2019-02-23T08:29:40.074Z,0.77
2019-02-23T08:32:05.830Z,0.80
2019-02-23T08:34:31.603Z,0.91
2019-02-23T08:36:57.356Z,1.02
2019-02-23T08:39:23.122Z,1.10
2019-02-23T08:41:48.872Z,1.20
2019-02-23T08:44:14.632Z,1.37
2019-02-23T08:46:40.383Z,1.58
2019-02-23T08:49:06.233Z,1.65
2019-02-23T08:51:32.000Z,1.69
2019-02-23T08:53:57.757Z,1.73
2019-02-23T08:56:23.513Z,1.88
2019-02-23T08:58:49.278Z,2.02
2019-02-23T09:01:15.043Z,2.10
2019-02-23T09:03:40.797Z,2.14
2019-02-23T09:06:06.567Z,2.18
2019-02-23T09:08:32.318Z,2.24
2019-02-23T09:10:58.078Z,2.29
2019-02-23T09:13:23.835Z,2.34
2019-02-23T09:15:49.607Z,2.37
2019-02-23T09:18:15.351Z,2.44
2019-02-23T09:20:41.111Z,2.55
2019-02-23T09:23:06.870Z,2.66
2019-02-23T09:25:32.636Z,2.79
2019-02-23T09:27:58.392Z,2.83
2019-02-23T09:30:24.149Z,2.84
2019-02-23T09:32:49.911Z,3.00
2019-02-23T09:35:15.685Z,3.07
2019-02-23T09:37:41.433Z,3.11
2019-02-23T09:40:14.682Z,3.15
2019-02-23T09:42:40.434Z,3.26
2019-02-23T09:45:08.811Z,3.19
2019-02-23T09:47:34.560Z,3.19
2019-02-23T09:50:00.322Z,3.28
2019-02-23T09:52:26.080Z,3.32
2019-02-23T09:54:51.837Z,3.45
2019-02-23T09:57:17.599Z,3.63
2019-02-23T09:59:43.359Z,3.71
2019-02-23T10:02:09.124Z,3.73
2019-02-23T10:04:34.937Z,3.80
2019-02-23T10:07:00.777Z,3.74
2019-02-23T10:09:26.550Z,3.75
2019-02-23T10:11:52.314Z,4.01
2019-02-23T10:14:18.071Z,4.08
2019-02-23T10:16:43.832Z,4.01
2019-02-23T10:19:09.684Z,4.01
2019-02-23T10:21:35.466Z,4.17
2019-02-23T10:24:01.220Z,4.11
2019-02-23T10:26:26.991Z,4.10
2019-02-23T10:28:52.737Z,4.22
2019-02-23T10:31:18.506Z,4.31
2019-02-23T10:33:47.664Z,4.44
2019-02-23T10:36:11.922Z,4.89
2019-02-23T10:38:37.679Z,5.22
2019-02-23T10:41:03.456Z,5.43
2019-02-23T10:43:29.208Z,5.50
2019-02-23T10:45:54.965Z,5.47
2019-02-23T10:48:20.712Z,5.43
2019-02-23T10:50:46.463Z,5.47
2019-02-23T10:53:12.232Z,5.47
2019-02-23T10:55:37.987Z,5.57
2019-02-23T10:58:03.769Z,5.69
2019-02-23T11:00:29.558Z,5.74
2019-02-23T11:02:55.284Z,5.89
2019-02-23T11:05:21.026Z,5.85
2019-02-23T11:07:46.785Z,5.86
2019-02-23T11:10:12.706Z,5.89
2019-02-23T11:12:38.466Z,5.69
2019-02-23T11:15:07.626Z,5.75
2019-02-23T11:17:33.397Z,5.64
2019-02-23T11:19:59.151Z,5.64
2019-02-23T11:22:24.939Z,5.73
2019-02-23T11:24:50.746Z,5.69
2019-02-23T11:27:16.669Z,5.91
2019-02-23T11:29:42.422Z,5.88
2019-02-23T11:32:08.225Z,5.89
2019-02-23T11:34:34.009Z,5.88
2019-02-23T11:36:59.902Z,5.65
2019-02-23T11:39:25.648Z,5.63
2019-02-23T11:41:51.427Z,5.63
2019-02-23T11:44:17.186Z,5.75
2019-02-23T11:46:59.267Z,5.83
2019-02-23T11:49:10.611Z,5.86
2019-02-23T11:51:36.369Z,5.86
2019-02-23T11:54:02.128Z,6.10
2019-02-23T11:56:27.909Z,6.08
2019-02-23T11:58:53.689Z,6.15
2019-02-23T12:01:19.443Z,6.17
2019-02-23T12:03:45.216Z,6.20
2019-02-23T12:06:10.956Z,6.14
2019-02-23T12:08:36.728Z,6.32
2019-02-23T12:11:02.473Z,6.54
2019-02-23T12:13:28.240Z,6.62
2019-02-23T12:15:54.034Z,6.57
2019-02-23T12:18:19.754Z,6.56
2019-02-23T12:20:45.502Z,6.51
2019-02-23T12:23:11.259Z,6.43
2019-02-23T12:25:37.007Z,6.32
2019-02-23T12:28:02.765Z,6.38
2019-02-23T12:30:28.518Z,6.45
2019-02-23T12:32:54.281Z,6.37
2019-02-23T12:35:20.048Z,6.27
2019-02-23T12:37:45.790Z,6.33
2019-02-23T12:40:11.596Z,6.41
2019-02-23T12:42:37.356Z,6.45
2019-02-23T12:45:05.326Z,6.52
2019-02-23T12:47:31.097Z,6.35
2019-02-23T12:49:56.861Z,6.35
2019-02-23T12:52:22.744Z,6.37
2019-02-23T12:54:48.509Z,6.41
2019-02-23T12:57:14.263Z,6.53
2019-02-23T12:59:40.056Z,6.74
2019-02-23T13:02:05.801Z,6.80
2019-02-23T13:04:31.560Z,6.80
2019-02-23T13:06:57.308Z,6.86
2019-02-23T13:09:25.071Z,6.94
2019-02-23T13:12:14.033Z,6.80
2019-02-23T13:15:01.023Z,6.85
2019-02-23T13:17:36.392Z,6.80
2019-02-23T13:20:22.694Z,6.95
2019-02-23T13:23:13.014Z,6.95
2019-02-23T13:25:48.608Z,7.55
2019-02-23T13:28:24.166Z,7.46
2019-02-23T13:31:02.848Z,7.26
2019-02-23T13:33:40.775Z,7.26
2019-02-23T13:36:19.494Z,7.26
2019-02-23T13:39:09.947Z,7.42
2019-02-23T13:42:02.373Z,7.34
2019-02-23T13:44:48.505Z,7.29
2019-02-23T13:47:27.189Z,7.34
2019-02-23T13:50:19.095Z,7.13
2019-02-23T13:52:54.655Z,7.15
2019-02-23T13:55:27.218Z,7.08
2019-02-23T13:57:56.782Z,7.03
2019-02-23T14:00:46.206Z,7.15
2019-02-23T14:03:27.930Z,7.15
2019-02-23T14:06:00.317Z,7.05
2019-02-23T14:09:02.937Z,6.93
2019-02-23T14:11:35.515Z,6.93
2019-02-23T14:14:36.429Z,6.97
2019-02-23T14:17:08.818Z,6.84
2019-02-23T14:19:38.384Z,6.90
2019-02-23T14:22:41.333Z,6.84
2019-02-23T14:25:33.183Z,6.87
2019-02-23T14:28:32.998Z,6.87
2019-02-23T14:31:14.212Z,6.82
2019-02-23T14:34:09.050Z,6.81
2019-02-23T14:36:50.243Z,6.83
2019-02-23T14:39:34.659Z,6.82
2019-02-23T14:42:19.469Z,6.79
2019-02-23T14:45:05.767Z,6.57
2019-02-23T14:48:04.209Z,6.57
2019-02-23T14:50:39.743Z,6.58
2019-02-23T14:53:36.147Z,6.49
2019-02-23T14:56:11.480Z,6.40
2019-02-23T14:58:53.200Z,6.40
2019-02-23T15:01:34.947Z,6.38
2019-02-23T15:04:10.541Z,6.31
2019-02-23T15:06:56.717Z,6.30
2019-02-23T15:09:29.333Z,6.30
2019-02-23T15:12:01.903Z,6.26
2019-02-23T15:14:46.639Z,6.26
2019-02-23T15:17:19.106Z,6.28
2019-02-23T15:19:54.317Z,6.20
2019-02-23T15:22:35.786Z,6.20
2019-02-23T15:25:21.883Z,6.19
2019-02-23T15:28:02.887Z,6.19
2019-02-23T15:30:46.908Z,6.15
2019-02-23T15:33:25.302Z,6.12
2019-02-23T15:35:57.591Z,6.10
2019-02-23T15:38:36.152Z,6.11
2019-02-23T15:41:31.024Z,6.09
2019-02-23T15:44:03.564Z,6.06
2019-02-23T15:47:05.639Z,6.03
2019-02-23T15:49:31.786Z,5.99
2019-02-23T15:51:58.459Z,5.98
2019-02-23T15:54:24.242Z,5.96
2019-02-23T15:56:49.960Z,5.96
2019-02-23T15:59:15.732Z,5.97
2019-02-23T16:01:41.489Z,5.96
2019-02-23T16:04:07.257Z,5.90
2019-02-23T16:06:33.031Z,5.87
2019-02-23T16:08:58.774Z,5.84
2019-02-23T16:11:24.517Z,5.82
2019-02-23T16:13:50.274Z,5.80
2019-02-23T16:16:16.028Z,5.77
2019-02-23T16:18:41.776Z,5.76
2019-02-23T16:21:07.533Z,5.74
2019-02-23T16:23:35.537Z,5.72
2019-02-23T16:26:00.944Z,5.70
2019-02-23T16:28:26.693Z,5.67
2019-02-23T16:30:52.455Z,5.66
2019-02-23T16:33:18.204Z,5.66
2019-02-23T16:35:43.957Z,5.59
2019-02-23T16:38:09.708Z,5.58
2019-02-23T16:40:35.463Z,5.57
2019-02-23T16:43:01.211Z,5.51
2019-02-23T16:45:27.175Z,5.46
2019-02-23T16:47:52.922Z,5.41
2019-02-23T16:50:18.727Z,5.36
2019-02-23T16:52:44.445Z,5.35
2019-02-23T16:55:10.205Z,5.31
2019-02-23T16:57:35.957Z,5.29
2019-02-23T17:00:02.452Z,5.27
2019-02-23T17:02:28.208Z,5.18
2019-02-23T17:04:54.241Z,5.15
2019-02-23T17:07:19.999Z,5.10
2019-02-23T17:09:45.765Z,5.08
2019-02-23T17:12:11.511Z,5.02
2019-02-23T17:14:37.268Z,4.99
2019-02-23T17:17:03.021Z,4.92
2019-02-23T17:19:28.763Z,4.82
2019-02-23T17:21:54.550Z,4.74
2019-02-23T17:24:20.303Z,4.69
2019-02-23T17:26:46.064Z,4.69
2019-02-23T17:29:11.841Z,4.65
2019-02-23T17:31:37.626Z,4.69
2019-02-23T17:34:03.391Z,4.66
2019-02-23T17:36:29.166Z,4.62
2019-02-23T17:38:54.914Z,4.64
2019-02-23T17:41:20.671Z,4.64
2019-02-23T17:43:46.548Z,4.60
2019-02-23T17:46:12.353Z,4.56
2019-02-23T17:48:38.398Z,4.56
2019-02-23T17:51:04.136Z,4.54
2019-02-23T17:53:29.898Z,4.23
2019-02-23T17:55:55.652Z,4.32
2019-02-23T17:58:21.473Z,4.20
2019-02-23T18:00:47.228Z,4.09
2019-02-23T18:03:12.989Z,4.03
2019-02-23T18:05:38.752Z,3.98
2019-02-23T18:08:04.522Z,3.93
2019-02-23T18:10:30.271Z,3.86
2019-02-23T18:12:56.050Z,3.81
2019-02-23T18:15:21.823Z,3.80
2019-02-23T18:17:47.610Z,3.76
2019-02-23T18:20:13.381Z,3.68
2019-02-23T18:22:39.185Z,3.63
2019-02-23T18:25:06.363Z,3.56
2019-02-23T18:27:32.129Z,3.50
2019-02-23T18:29:57.884Z,3.52
2019-02-23T18:32:23.650Z,3.47
2019-02-23T18:34:49.408Z,3.38
2019-02-23T18:37:15.221Z,3.34
2019-02-23T18:39:41.031Z,3.32
2019-02-23T18:42:06.742Z,3.27
2019-02-23T18:44:32.514Z,3.19
2019-02-23T18:46:59.045Z,3.07
2019-02-23T18:49:25.763Z,2.97
2019-02-23T18:51:51.536Z,2.89
2019-02-23T18:54:17.306Z,2.87
2019-02-23T18:56:43.047Z,2.87
2019-02-23T18:59:08.821Z,2.84
2019-02-23T19:01:34.578Z,2.80
2019-02-23T19:04:00.335Z,2.81
2019-02-23T19:06:26.088Z,2.81
2019-02-23T19:08:51.850Z,2.83
2019-02-23T19:11:17.609Z,2.81
2019-02-23T19:13:43.373Z,2.79
2019-02-23T19:16:09.124Z,2.81
2019-02-23T19:18:34.887Z,2.80
2019-02-23T19:21:00.641Z,2.75
2019-02-23T19:23:26.408Z,2.73
2019-02-23T19:25:52.152Z,2.70
2019-02-23T19:28:17.921Z,2.72
2019-02-23T19:30:43.680Z,2.69
2019-02-23T19:33:09.438Z,2.69
2019-02-23T19:35:35.207Z,2.64
2019-02-23T19:38:00.953Z,2.64
2019-02-23T19:40:26.711Z,2.63
2019-02-23T19:42:52.466Z,2.58
2019-02-23T19:45:18.229Z,2.54
2019-02-23T19:47:43.979Z,2.54
2019-02-23T19:50:19.066Z,2.53
2019-02-23T19:52:44.821Z,2.46
2019-02-23T19:55:13.497Z,2.45
2019-02-23T19:57:39.261Z,2.47
2019-02-23T20:00:07.342Z,2.47
2019-02-23T20:02:33.099Z,2.40
2019-02-23T20:04:58.867Z,2.42
2019-02-23T20:07:24.611Z,2.37
2019-02-23T20:09:50.367Z,2.34
2019-02-23T20:12:16.131Z,2.26
2019-02-23T20:14:41.894Z,2.25
2019-02-23T20:17:07.651Z,2.21
2019-02-23T20:19:33.404Z,2.24
2019-02-23T20:21:59.172Z,2.23
2019-02-23T20:24:24.926Z,2.24
2019-02-23T20:26:55.546Z,2.18
2019-02-23T20:29:18.378Z,2.18
2019-02-23T20:31:44.241Z,2.08
2019-02-23T20:34:09.993Z,2.15
2019-02-23T20:36:35.754Z,2.18
2019-02-23T20:39:01.501Z,2.27
2019-02-23T20:41:27.262Z,2.32
2019-02-23T20:43:53.049Z,2.33
2019-02-23T20:46:18.803Z,2.36
2019-02-23T20:48:44.561Z,2.37
2019-02-23T20:51:10.331Z,2.28
2019-02-23T20:53:36.077Z,2.30
2019-02-23T20:56:01.835Z,2.36
2019-02-23T20:58:27.583Z,2.35
2019-02-23T21:00:53.356Z,2.34
2019-02-23T21:03:19.110Z,2.35
2019-02-23T21:05:44.858Z,2.31
2019-02-23T21:08:10.613Z,2.32
2019-02-23T21:10:36.483Z,2.33
2019-02-23T21:13:02.225Z,2.33
2019-02-23T21:15:27.992Z,2.32
2019-02-23T21:17:53.746Z,2.22
2019-02-23T21:20:19.484Z,2.14
2019-02-23T21:22:45.252Z,2.10
2019-02-23T21:25:11.000Z,2.18
2019-02-23T21:27:36.763Z,2.14
2019-02-23T21:30:04.718Z,2.09
2019-02-23T21:32:30.491Z,2.07
2019-02-23T21:34:56.248Z,2.07
2019-02-23T21:37:22.289Z,2.08
2019-02-23T21:39:48.084Z,2.06
2019-02-23T21:42:13.854Z,2.05
2019-02-23T21:44:39.591Z,1.99
2019-02-23T21:47:05.356Z,1.95
2019-02-23T21:49:31.116Z,1.90
2019-02-23T21:51:56.881Z,1.92
2019-02-23T21:54:22.639Z,1.90
2019-02-23T21:56:48.388Z,1.87
2019-02-23T21:59:14.143Z,1.89
2019-02-23T22:01:39.928Z,1.87
2019-02-23T22:04:05.681Z,1.84
2019-02-23T22:06:31.470Z,1.77
2019-02-23T22:08:57.220Z,1.84
2019-02-23T22:11:22.977Z,1.79
2019-02-23T22:13:48.723Z,1.78
2019-02-23T22:16:14.479Z,1.74
2019-02-23T22:18:40.244Z,1.77
2019-02-23T22:21:05.987Z,1.76
2019-02-23T22:23:31.749Z,1.77
2019-02-23T22:25:57.507Z,1.77
2019-02-23T22:28:23.268Z,1.79
2019-02-23T22:30:49.019Z,1.84
2019-02-23T22:33:14.784Z,1.80
2019-02-23T22:35:40.538Z,1.75
2019-02-23T22:38:06.296Z,1.69
2019-02-23T22:40:32.048Z,1.57
2019-02-23T22:42:57.836Z,1.47
2019-02-23T22:45:23.579Z,1.40
2019-02-23T22:47:49.333Z,1.33
2019-02-23T22:50:15.087Z,1.29
2019-02-23T22:52:40.831Z,1.25
2019-02-23T22:55:06.601Z,1.17
2019-02-23T22:57:40.244Z,1.06
2019-02-23T23:00:00.831Z,0.94
2019-02-23T23:02:26.576Z,0.86
2019-02-23T23:04:52.648Z,0.88
2019-02-23T23:07:18.394Z,0.84
2019-02-23T23:09:44.173Z,0.82
2019-02-23T23:12:09.920Z,0.78
2019-02-23T23:14:35.682Z,0.75
2019-02-23T23:17:01.433Z,0.64
2019-02-23T23:19:27.204Z,0.64
2019-02-23T23:21:52.969Z,0.51
2019-02-23T23:24:18.730Z,0.51
2019-02-23T23:26:44.492Z,0.49
2019-02-23T23:29:10.255Z,0.43
2019-02-23T23:31:36.002Z,0.43
2019-02-23T23:34:01.778Z,0.37
2019-02-23T23:36:27.526Z,0.33
2019-02-23T23:38:53.269Z,0.32
2019-02-23T23:41:19.044Z,0.31
2019-02-23T23:43:44.800Z,0.16
2019-02-23T23:46:10.573Z,0.14
2019-02-23T23:48:36.335Z,0.15
2019-02-23T23:51:02.106Z,0.15
2019-02-23T23:53:27.850Z,0.07
2019-02-23T23:55:53.608Z,-0.02
2019-02-23T23:58:19.358Z,-0.02
